createdAt,value
2022-12-06T00:01:59.184Z,1.95
2022-12-06T00:04:25.847Z,1.95
2022-12-06T00:06:52.507Z,1.97
2022-12-06T00:09:20.557Z,1.97
2022-12-06T00:11:47.197Z,1.95
2022-12-06T00:14:14.068Z,1.95
2022-12-06T00:16:41.073Z,1.95
2022-12-06T00:19:07.735Z,1.99
2022-12-06T00:21:36.186Z,1.96
2022-12-06T00:24:09.615Z,1.95
2022-12-06T00:26:38.316Z,1.94
2022-12-06T00:29:06.872Z,1.87
2022-12-06T00:31:34.695Z,1.89
2022-12-06T00:34:01.683Z,1.91
2022-12-06T00:36:30.628Z,1.93
2022-12-06T00:39:01.052Z,1.94
2022-12-06T00:41:28.484Z,1.93
2022-12-06T00:43:55.726Z,1.93
2022-12-06T00:46:28.298Z,2.00
2022-12-06T00:48:57.040Z,2.03
2022-12-06T00:51:25.763Z,2.08
2022-12-06T00:53:52.657Z,2.06
2022-12-06T00:56:19.693Z,2.02
2022-12-06T00:58:46.771Z,1.97
2022-12-06T01:01:23.372Z,1.97
2022-12-06T01:03:53.409Z,1.97
2022-12-06T01:06:23.118Z,1.91
2022-12-06T01:08:50.202Z,1.91
2022-12-06T01:11:17.139Z,1.95
2022-12-06T01:13:44.351Z,1.95
2022-12-06T01:16:13.912Z,1.97
2022-12-06T01:18:42.618Z,2.00
2022-12-06T01:21:17.515Z,1.98
2022-12-06T01:23:45.790Z,2.01
2022-12-06T01:26:19.085Z,1.99
2022-12-06T01:28:46.158Z,1.93
2022-12-06T01:31:13.639Z,1.93
2022-12-06T01:33:40.408Z,1.93
2022-12-06T01:36:07.610Z,1.95
2022-12-06T01:38:34.591Z,1.95
2022-12-06T01:41:01.457Z,1.93
2022-12-06T01:43:33.226Z,1.95
2022-12-06T01:46:06.515Z,1.96
2022-12-06T01:48:34.402Z,1.96
2022-12-06T01:51:01.854Z,1.93
2022-12-06T01:53:28.620Z,1.92
2022-12-06T01:55:55.208Z,1.92
2022-12-06T01:58:31.786Z,1.90
2022-12-06T02:00:58.448Z,1.93
2022-12-06T02:03:29.044Z,1.92
2022-12-06T02:05:56.728Z,1.93
2022-12-06T02:08:24.530Z,1.94
2022-12-06T02:10:51.419Z,1.97
2022-12-06T02:13:18.141Z,1.97
2022-12-06T02:16:19.440Z,1.91
2022-12-06T02:18:53.049Z,1.85
2022-12-06T02:21:28.644Z,1.87
2022-12-06T02:24:07.205Z,1.85
2022-12-06T02:26:43.695Z,1.86
2022-12-06T02:29:51.622Z,1.82
2022-12-06T02:32:24.249Z,1.84
2022-12-06T02:35:05.791Z,1.80
2022-12-06T02:37:47.921Z,1.82
2022-12-06T02:40:22.033Z,1.83
2022-12-06T02:43:08.684Z,1.82
2022-12-06T02:45:41.850Z,1.81
2022-12-06T02:48:10.353Z,1.84
2022-12-06T02:50:42.346Z,1.83
2022-12-06T02:53:14.035Z,1.82
2022-12-06T02:55:42.236Z,1.88
2022-12-06T02:58:08.843Z,1.90
2022-12-06T03:00:39.736Z,1.86
2022-12-06T03:03:15.460Z,1.87
2022-12-06T03:06:05.154Z,1.88
2022-12-06T03:08:49.749Z,1.88
2022-12-06T03:11:17.219Z,1.86
2022-12-06T03:14:02.504Z,1.85
2022-12-06T03:16:34.960Z,1.80
2022-12-06T03:19:08.036Z,1.84
2022-12-06T03:21:43.649Z,1.84
2022-12-06T03:24:13.726Z,1.86
2022-12-06T03:26:45.142Z,1.88
2022-12-06T03:29:15.561Z,1.89
2022-12-06T03:31:43.185Z,1.90
2022-12-06T03:34:22.126Z,1.90
2022-12-06T03:36:51.069Z,1.90
2022-12-06T03:39:31.751Z,1.93
2022-12-06T03:41:59.937Z,1.92
2022-12-06T03:44:26.853Z,1.90
2022-12-06T03:47:01.776Z,1.76
2022-12-06T03:49:33.592Z,1.78
2022-12-06T03:52:00.321Z,1.84
2022-12-06T03:54:27.340Z,1.80
2022-12-06T03:56:53.951Z,1.82
2022-12-06T03:59:20.544Z,1.87
2022-12-06T04:01:47.188Z,1.77
2022-12-06T04:04:13.988Z,1.79
2022-12-06T04:06:40.681Z,1.81
2022-12-06T04:09:26.148Z,1.74
2022-12-06T04:11:52.788Z,1.75
2022-12-06T04:14:19.431Z,1.76
2022-12-06T04:17:04.921Z,1.80
2022-12-06T04:19:31.651Z,1.78
2022-12-06T04:22:16.872Z,1.77
2022-12-06T04:24:43.725Z,1.76
2022-12-06T04:27:29.180Z,1.75
2022-12-06T04:30:14.476Z,1.75
2022-12-06T04:32:59.766Z,1.76
2022-12-06T04:35:44.676Z,1.77
2022-12-06T04:38:30.200Z,1.68
2022-12-06T04:40:56.784Z,1.64
2022-12-06T04:43:41.954Z,1.66
2022-12-06T04:46:13.998Z,1.68
2022-12-06T04:48:41.717Z,1.69
2022-12-06T04:51:13.176Z,1.72
2022-12-06T04:53:39.920Z,1.73
2022-12-06T04:56:06.623Z,1.69
2022-12-06T04:58:33.266Z,1.72
2022-12-06T05:00:59.866Z,1.77
2022-12-06T05:03:26.571Z,1.75
2022-12-06T05:05:53.227Z,1.78
2022-12-06T05:08:19.928Z,1.73
2022-12-06T05:10:48.289Z,1.73
2022-12-06T05:13:16.494Z,1.72
2022-12-06T05:15:51.402Z,1.76
2022-12-06T05:18:18.473Z,1.67
2022-12-06T05:20:45.221Z,1.71
2022-12-06T05:23:12.753Z,1.66
2022-12-06T05:25:39.433Z,1.64
2022-12-06T05:28:06.282Z,1.61
2022-12-06T05:30:33.024Z,1.67
2022-12-06T05:32:59.635Z,1.67
2022-12-06T05:35:26.261Z,1.69
2022-12-06T05:37:52.871Z,1.69
2022-12-06T05:40:19.493Z,1.72
2022-12-06T05:42:46.084Z,1.69
2022-12-06T05:45:12.728Z,1.68
2022-12-06T05:47:39.935Z,1.69
2022-12-06T05:50:07.048Z,1.69
2022-12-06T05:52:33.651Z,1.62
2022-12-06T05:55:00.293Z,1.63
2022-12-06T05:57:26.936Z,1.67
2022-12-06T05:59:53.511Z,1.63
2022-12-06T06:02:20.206Z,1.61
2022-12-06T06:04:46.840Z,1.57
2022-12-06T06:07:13.426Z,1.54
2022-12-06T06:09:40.086Z,1.53
2022-12-06T06:12:12.321Z,1.53
2022-12-06T06:14:39.532Z,1.48
2022-12-06T06:17:06.169Z,1.45
2022-12-06T06:19:32.833Z,1.47
2022-12-06T06:21:59.408Z,1.45
2022-12-06T06:24:26.059Z,1.41
2022-12-06T06:26:52.677Z,1.44
2022-12-06T06:29:19.254Z,1.41
2022-12-06T06:31:46.508Z,1.45
2022-12-06T06:34:13.143Z,1.46
2022-12-06T06:36:44.107Z,1.41
2022-12-06T06:39:12.645Z,1.37
2022-12-06T06:41:39.393Z,1.36
2022-12-06T06:44:06.012Z,1.31
2022-12-06T06:46:32.793Z,1.32
2022-12-06T06:48:59.391Z,1.30
2022-12-06T06:51:26.124Z,1.30
2022-12-06T06:53:52.699Z,1.27
2022-12-06T06:56:20.298Z,1.22
2022-12-06T06:58:46.874Z,1.23
2022-12-06T07:01:19.660Z,1.26
2022-12-06T07:03:46.483Z,1.22
2022-12-06T07:06:13.171Z,1.22
2022-12-06T07:08:41.710Z,1.22
2022-12-06T07:11:09.347Z,1.26
2022-12-06T07:13:37.653Z,1.20
2022-12-06T07:16:06.100Z,1.17
2022-12-06T07:18:33.428Z,1.17
2022-12-06T07:21:06.575Z,1.20
2022-12-06T07:23:35.098Z,1.19
2022-12-06T07:26:01.639Z,1.22
2022-12-06T07:28:28.223Z,1.25
2022-12-06T07:30:55.116Z,1.23
2022-12-06T07:33:21.728Z,1.19
2022-12-06T07:38:39.815Z,1.17
2022-12-06T07:41:28.416Z,1.20
2022-12-06T07:44:15.277Z,1.23
2022-12-06T07:46:42.756Z,1.25
2022-12-06T07:49:10.065Z,1.28
2022-12-06T07:51:36.868Z,1.25
2022-12-06T07:54:04.183Z,1.22
2022-12-06T07:56:30.805Z,1.19
2022-12-06T07:58:57.412Z,1.21
2022-12-06T08:01:24.343Z,1.24
2022-12-06T08:03:50.978Z,1.21
2022-12-06T08:06:17.931Z,1.25
2022-12-06T08:08:44.566Z,1.23
2022-12-06T08:11:11.171Z,1.32
2022-12-06T08:13:37.985Z,1.28
2022-12-06T08:16:09.856Z,1.30
2022-12-06T08:18:37.502Z,1.24
2022-12-06T08:21:04.862Z,1.24
2022-12-06T08:23:34.334Z,1.27
2022-12-06T08:26:07.102Z,1.23
2022-12-06T08:28:35.359Z,1.24
2022-12-06T08:31:13.690Z,1.27
2022-12-06T08:33:40.791Z,1.25
2022-12-06T08:36:09.717Z,1.21
2022-12-06T08:38:37.578Z,1.27
2022-12-06T08:41:05.034Z,1.31
2022-12-06T08:43:32.340Z,1.30
2022-12-06T08:45:59.234Z,1.33
2022-12-06T08:48:27.275Z,1.34
2022-12-06T08:50:53.883Z,1.41
2022-12-06T08:53:20.550Z,1.48
2022-12-06T08:56:00.439Z,1.43
2022-12-06T08:58:29.073Z,1.43
2022-12-06T09:00:55.668Z,1.48
2022-12-06T09:03:22.348Z,1.52
2022-12-06T09:05:48.919Z,1.57
2022-12-06T09:08:15.635Z,1.51
2022-12-06T09:10:43.669Z,1.44
2022-12-06T09:13:10.439Z,1.40
2022-12-06T09:15:38.673Z,1.36
2022-12-06T09:18:05.345Z,1.39
2022-12-06T09:20:32.488Z,1.38
2022-12-06T09:22:59.115Z,1.31
2022-12-06T09:25:25.733Z,1.30
2022-12-06T09:27:53.648Z,1.30
2022-12-06T09:30:20.375Z,1.30
2022-12-06T09:32:48.491Z,1.31
2022-12-06T09:35:16.437Z,1.30
2022-12-06T09:37:44.580Z,1.29
2022-12-06T09:40:24.429Z,1.24
2022-12-06T09:43:09.056Z,1.26
2022-12-06T09:46:23.920Z,1.28
2022-12-06T09:48:56.819Z,1.23
2022-12-06T09:51:38.884Z,1.24
2022-12-06T09:54:33.861Z,1.22
2022-12-06T09:57:32.484Z,1.21
2022-12-06T10:00:15.425Z,1.16
2022-12-06T10:03:25.247Z,1.10
2022-12-06T10:06:01.746Z,1.20
2022-12-06T10:08:34.483Z,1.27
2022-12-06T10:11:11.872Z,1.30
2022-12-06T10:13:47.476Z,1.31
2022-12-06T10:16:43.171Z,1.29
2022-12-06T10:19:50.172Z,1.18
2022-12-06T10:22:16.702Z,1.26
2022-12-06T10:25:11.749Z,1.34
2022-12-06T10:28:16.192Z,1.37
2022-12-06T10:30:56.093Z,1.38
2022-12-06T10:33:59.111Z,1.45
2022-12-06T10:36:48.921Z,1.40
2022-12-06T10:39:24.804Z,1.37
2022-12-06T10:42:09.921Z,1.40
2022-12-06T10:44:50.818Z,1.44
2022-12-06T10:47:23.376Z,1.41
2022-12-06T10:50:00.090Z,1.41
2022-12-06T10:52:56.077Z,1.39
2022-12-06T10:55:34.596Z,1.44
2022-12-06T10:58:07.164Z,1.55
2022-12-06T11:01:05.076Z,1.59
2022-12-06T11:03:38.265Z,1.60
2022-12-06T11:06:20.522Z,1.55
2022-12-06T11:08:52.636Z,1.61
2022-12-06T11:11:26.887Z,1.70
2022-12-06T11:14:03.990Z,1.76
2022-12-06T11:16:38.108Z,1.71
2022-12-06T11:19:29.789Z,1.77
2022-12-06T11:22:13.712Z,1.79
2022-12-06T11:25:06.777Z,1.74
2022-12-06T11:27:39.871Z,1.77
2022-12-06T11:30:19.834Z,1.74
2022-12-06T11:32:50.743Z,1.77
2022-12-06T11:35:21.803Z,1.75
2022-12-06T11:37:57.547Z,1.71
2022-12-06T11:40:43.113Z,1.75
2022-12-06T11:43:16.826Z,1.69
2022-12-06T11:45:45.461Z,1.69
2022-12-06T11:48:21.587Z,1.60
2022-12-06T11:50:50.289Z,1.66
2022-12-06T11:53:27.117Z,1.78
2022-12-06T11:55:57.560Z,1.78
2022-12-06T11:58:47.022Z,1.79
2022-12-06T12:01:14.633Z,1.83
2022-12-06T12:03:44.203Z,1.85
2022-12-06T12:06:26.622Z,1.86
2022-12-06T12:09:01.288Z,1.92
2022-12-06T12:11:31.651Z,1.82
2022-12-06T12:14:02.747Z,1.74
2022-12-06T12:16:48.272Z,1.73
2022-12-06T12:19:32.773Z,1.77
2022-12-06T12:22:13.131Z,1.77
2022-12-06T12:25:18.284Z,1.81
2022-12-06T12:27:39.251Z,1.69
2022-12-06T12:30:26.982Z,1.68
2022-12-06T12:33:05.870Z,1.61
2022-12-06T12:35:33.828Z,1.61
2022-12-06T12:38:13.201Z,1.60
2022-12-06T12:40:41.472Z,1.62
2022-12-06T12:43:18.015Z,1.66
2022-12-06T12:46:05.421Z,1.65
2022-12-06T12:48:32.471Z,1.68
2022-12-06T12:51:01.739Z,1.67
2022-12-06T12:53:36.470Z,1.66
2022-12-06T12:56:22.735Z,1.61
2022-12-06T12:58:53.664Z,1.62
2022-12-06T13:02:02.531Z,1.62
2022-12-06T13:04:43.070Z,1.64
2022-12-06T13:07:22.039Z,1.63
2022-12-06T13:10:24.156Z,1.65
2022-12-06T13:12:55.573Z,1.67
2022-12-06T13:15:47.464Z,1.73
2022-12-06T13:18:21.336Z,1.77
2022-12-06T13:20:50.424Z,1.78
2022-12-06T13:23:20.215Z,1.81
2022-12-06T13:26:08.468Z,1.77
2022-12-06T13:28:42.608Z,1.77
2022-12-06T13:31:17.238Z,1.79
2022-12-06T13:33:59.321Z,1.81
2022-12-06T13:36:28.385Z,1.83
2022-12-06T13:38:56.209Z,1.85
2022-12-06T13:41:53.706Z,1.91
2022-12-06T13:44:38.793Z,1.89
2022-12-06T13:47:27.233Z,1.89
2022-12-06T13:49:57.979Z,1.92
2022-12-06T13:52:42.725Z,1.90
2022-12-06T13:55:24.671Z,1.86
2022-12-06T13:58:17.202Z,1.87
2022-12-06T14:00:43.717Z,1.88
2022-12-06T14:03:16.085Z,1.94
2022-12-06T14:06:14.287Z,1.88
2022-12-06T14:08:44.225Z,1.84
2022-12-06T14:11:16.346Z,1.87
2022-12-06T14:13:45.911Z,1.91
2022-12-06T14:16:19.216Z,1.92
2022-12-06T14:18:46.360Z,1.89
2022-12-06T14:21:23.751Z,1.79
2022-12-06T14:23:50.983Z,1.81
2022-12-06T14:26:22.976Z,1.80
2022-12-06T14:28:51.537Z,1.84
2022-12-06T14:31:39.531Z,1.87
2022-12-06T14:34:06.189Z,1.94
2022-12-06T14:36:40.742Z,1.88
2022-12-06T14:39:15.980Z,1.94
2022-12-06T14:42:29.267Z,1.88
2022-12-06T14:45:01.973Z,1.78
2022-12-06T14:47:31.002Z,1.78
2022-12-06T14:50:19.342Z,1.77
2022-12-06T14:53:11.970Z,1.75
2022-12-06T14:55:58.742Z,1.77
2022-12-06T14:58:36.024Z,1.79
2022-12-06T15:01:15.010Z,1.76
2022-12-06T15:03:41.857Z,1.77
2022-12-06T15:06:10.442Z,1.73
2022-12-06T15:08:48.100Z,1.73
2022-12-06T15:11:38.423Z,1.79
2022-12-06T15:14:18.628Z,1.84
2022-12-06T15:16:56.455Z,1.81
2022-12-06T15:19:23.415Z,1.77
2022-12-06T15:21:52.345Z,1.77
2022-12-06T15:24:24.819Z,1.78
2022-12-06T15:26:51.692Z,1.75
2022-12-06T15:29:18.545Z,1.73
2022-12-06T15:31:49.837Z,1.76
2022-12-06T15:34:47.831Z,1.74
2022-12-06T15:37:38.135Z,1.75
2022-12-06T15:40:04.355Z,1.75
2022-12-06T15:42:31.116Z,1.75
2022-12-06T15:44:57.721Z,1.80
2022-12-06T15:47:24.328Z,1.82
2022-12-06T15:49:53.219Z,1.82
2022-12-06T15:52:24.810Z,1.79
2022-12-06T15:54:51.535Z,1.79
2022-12-06T15:57:18.184Z,1.80
2022-12-06T15:59:44.754Z,1.83
2022-12-06T16:02:16.918Z,1.81
2022-12-06T16:04:44.665Z,1.82
2022-12-06T16:07:13.426Z,1.83
2022-12-06T16:09:40.150Z,1.86
2022-12-06T16:12:07.080Z,1.85
2022-12-06T16:14:33.684Z,1.84
2022-12-06T16:17:00.304Z,1.82
2022-12-06T16:19:49.567Z,1.82
2022-12-06T16:22:16.150Z,1.81
2022-12-06T16:24:42.744Z,1.82
2022-12-06T16:27:09.593Z,1.86
2022-12-06T16:29:36.199Z,1.80
2022-12-06T16:32:03.004Z,1.86
2022-12-06T16:34:30.217Z,1.86
2022-12-06T16:37:01.467Z,1.86
2022-12-06T16:39:30.002Z,1.89
2022-12-06T16:41:56.834Z,1.83
2022-12-06T16:44:23.516Z,1.88
2022-12-06T16:46:50.525Z,1.88
2022-12-06T16:49:46.469Z,1.88
2022-12-06T16:52:14.422Z,1.94
2022-12-06T16:54:42.011Z,1.91
2022-12-06T16:57:11.062Z,1.88
2022-12-06T16:59:37.690Z,1.92
2022-12-06T17:02:18.975Z,1.89
2022-12-06T17:04:45.514Z,1.90
2022-12-06T17:07:12.069Z,1.93
2022-12-06T17:09:38.697Z,1.93
2022-12-06T17:12:12.708Z,1.92
2022-12-06T17:14:39.691Z,1.94
2022-12-06T17:17:06.376Z,1.93
2022-12-06T17:19:33.640Z,1.93
2022-12-06T17:22:06.202Z,1.88
2022-12-06T17:24:33.303Z,1.91
2022-12-06T17:26:59.993Z,1.92
2022-12-06T17:29:27.317Z,1.94
2022-12-06T17:31:54.543Z,1.95
2022-12-06T17:34:22.073Z,1.91
2022-12-06T17:36:49.751Z,1.93
2022-12-06T17:39:18.780Z,1.92
2022-12-06T17:42:03.994Z,1.92
2022-12-06T17:44:30.923Z,1.94
2022-12-06T17:46:57.573Z,1.95
2022-12-06T17:49:25.830Z,1.90
2022-12-06T17:51:53.284Z,1.93
2022-12-06T17:54:20.839Z,1.88
2022-12-06T17:56:49.863Z,1.87
2022-12-06T17:59:17.782Z,1.90
2022-12-06T18:02:14.261Z,1.86
2022-12-06T18:04:31.760Z,1.87
2022-12-06T18:06:58.596Z,1.84
2022-12-06T18:09:25.537Z,1.85
2022-12-06T18:11:52.207Z,1.84
2022-12-06T18:14:19.063Z,1.86
2022-12-06T18:16:46.381Z,1.88
2022-12-06T18:19:15.969Z,1.85
2022-12-06T18:21:43.640Z,1.86
2022-12-06T18:24:23.216Z,1.86
2022-12-06T18:26:52.204Z,1.91
2022-12-06T18:29:20.969Z,1.90
2022-12-06T18:31:48.153Z,1.93
2022-12-06T18:34:15.371Z,1.88
2022-12-06T18:36:42.424Z,1.94
2022-12-06T18:39:15.367Z,1.95
2022-12-06T18:41:45.895Z,1.95
2022-12-06T18:44:13.200Z,1.95
2022-12-06T18:46:44.428Z,1.98
2022-12-06T18:49:12.227Z,1.97
2022-12-06T18:51:39.346Z,1.91
2022-12-06T18:54:08.145Z,1.95
2022-12-06T18:56:35.490Z,1.96
2022-12-06T18:59:04.749Z,1.90
2022-12-06T19:01:34.009Z,1.92
2022-12-06T19:04:03.393Z,1.91
2022-12-06T19:06:31.368Z,1.89
2022-12-06T19:09:01.407Z,1.88
2022-12-06T19:11:28.253Z,1.89
2022-12-06T19:13:57.178Z,1.83
2022-12-06T19:16:30.214Z,1.85
2022-12-06T19:18:59.076Z,1.86
2022-12-06T19:21:27.122Z,1.83
2022-12-06T19:23:55.379Z,1.79
2022-12-06T19:26:23.067Z,1.79
2022-12-06T19:28:49.912Z,1.75
2022-12-06T19:31:17.442Z,1.73
2022-12-06T19:33:46.361Z,1.72
2022-12-06T19:36:19.339Z,1.72
2022-12-06T19:38:46.144Z,1.69
2022-12-06T19:41:15.960Z,1.71
2022-12-06T19:44:00.965Z,1.68
2022-12-06T19:46:29.474Z,1.68
2022-12-06T19:48:58.597Z,1.68
2022-12-06T19:51:28.854Z,1.63
2022-12-06T19:53:58.051Z,1.67
2022-12-06T19:56:26.054Z,1.60
2022-12-06T19:58:53.950Z,1.59
2022-12-06T20:01:24.967Z,1.50
2022-12-06T20:03:54.506Z,1.46
2022-12-06T20:06:22.198Z,1.44
2022-12-06T20:08:49.684Z,1.47
2022-12-06T20:11:39.502Z,1.41
2022-12-06T20:14:18.030Z,1.38
2022-12-06T20:16:44.834Z,1.35
2022-12-06T20:19:13.037Z,1.24
2022-12-06T20:21:39.636Z,1.19
2022-12-06T20:24:06.445Z,1.16
2022-12-06T20:26:33.680Z,1.15
2022-12-06T20:29:00.601Z,1.14
2022-12-06T20:31:29.075Z,1.08
2022-12-06T20:33:57.276Z,1.02
2022-12-06T20:36:25.305Z,0.96
2022-12-06T20:38:53.674Z,0.91
2022-12-06T20:41:26.161Z,0.86
2022-12-06T20:43:52.795Z,0.84
2022-12-06T20:46:23.237Z,0.88
2022-12-06T20:48:49.857Z,0.84
2022-12-06T20:51:27.262Z,0.81
2022-12-06T20:53:57.574Z,0.82
2022-12-06T20:56:26.696Z,0.79
2022-12-06T20:58:56.082Z,0.80
2022-12-06T21:01:24.587Z,0.76
2022-12-06T21:03:52.732Z,0.75
2022-12-06T21:06:20.446Z,0.77
2022-12-06T21:08:47.510Z,0.79
2022-12-06T21:11:23.696Z,0.81
2022-12-06T21:13:55.725Z,0.80
2022-12-06T21:16:26.402Z,0.84
2022-12-06T21:19:00.815Z,0.86
2022-12-06T21:21:34.102Z,0.84
2022-12-06T21:24:02.700Z,0.85
2022-12-06T21:26:30.538Z,0.87
2022-12-06T21:28:57.837Z,0.89
2022-12-06T21:31:30.417Z,0.89
2022-12-06T21:33:57.483Z,0.91
2022-12-06T21:36:24.955Z,0.94
2022-12-06T21:38:51.934Z,0.95
2022-12-06T21:41:19.029Z,0.95
2022-12-06T21:43:45.619Z,0.93
2022-12-06T21:46:14.775Z,0.98
2022-12-06T21:48:41.672Z,0.99
2022-12-06T21:51:10.974Z,1.00
2022-12-06T21:53:38.312Z,1.04
2022-12-06T21:56:07.705Z,1.05
2022-12-06T21:58:35.205Z,1.05
2022-12-06T22:01:10.768Z,1.03
2022-12-06T22:03:37.954Z,1.05
2022-12-06T22:06:12.561Z,1.05
2022-12-06T22:08:41.367Z,1.08
2022-12-06T22:11:13.577Z,1.12
2022-12-06T22:13:40.505Z,1.11
2022-12-06T22:16:09.065Z,1.15
2022-12-06T22:21:07.372Z,1.25
2022-12-06T22:23:35.039Z,1.26
2022-12-06T22:26:06.461Z,1.29
2022-12-06T22:28:33.169Z,1.28
2022-12-06T22:31:09.749Z,1.31
2022-12-06T22:33:36.392Z,1.32
2022-12-06T22:36:03.899Z,1.33
2022-12-06T22:38:30.576Z,1.29
2022-12-06T22:41:01.613Z,1.24
2022-12-06T22:43:29.184Z,1.28
2022-12-06T22:46:02.366Z,1.31
2022-12-06T22:48:29.734Z,1.30
2022-12-06T22:51:08.962Z,1.34
2022-12-06T22:53:35.547Z,1.35
2022-12-06T22:56:02.475Z,1.33
2022-12-06T22:58:29.059Z,1.36
2022-12-06T23:00:55.743Z,1.35
2022-12-06T23:03:22.409Z,1.28
2022-12-06T23:05:59.641Z,1.32
2022-12-06T23:08:27.136Z,1.36
2022-12-06T23:11:06.518Z,1.35
2022-12-06T23:13:33.668Z,1.34
2022-12-06T23:16:02.898Z,1.31
2022-12-06T23:18:30.682Z,1.35
2022-12-06T23:21:08.139Z,1.31
2022-12-06T23:23:35.657Z,1.31
2022-12-06T23:26:07.216Z,1.31
2022-12-06T23:28:34.734Z,1.28
2022-12-06T23:31:15.656Z,1.22
2022-12-06T23:33:44.133Z,1.21
2022-12-06T23:36:12.269Z,1.19
2022-12-06T23:38:39.515Z,1.19
2022-12-06T23:41:07.397Z,1.18
2022-12-06T23:43:35.469Z,1.26
2022-12-06T23:46:07.434Z,1.27
2022-12-06T23:48:35.384Z,1.28
2022-12-06T23:51:13.431Z,1.28
2022-12-06T23:53:41.155Z,1.26
2022-12-06T23:56:15.704Z,1.27
2022-12-06T23:58:43.957Z,1.29
